sensor_id;sensor_type;location;lat;lon;timestamp;P1;P2;P0
28026;PMS5003;15344;52.342;-1.290;2022-11-15T00:00:33;6;5;
28026;PMS5003;15344;52.342;-1.290;2022-11-15T00:02:58;8;5;
28026;PMS5003;15344;52.342;-1.290;2022-11-15T00:05:24;9;6;
28026;PMS5003;15344;52.342;-1.290;2022-11-15T00:07:49;8;7;
28026;PMS5003;15344;52.342;-1.290;2022-11-15T00:10:15;5;3;
28026;PMS5003;15344;52.342;-1.290;2022-11-15T00:12:40;9;6;
28026;PMS5003;15344;52.342;-1.290;2022-11-15T00:15:06;8;6;
28026;PMS5003;15344;52.342;-1.290;2022-11-15T00:17:31;4;3;
28026;PMS5003;15344;52.342;-1.290;2022-11-15T00:19:56;7;5;
28026;PMS5003;15344;52.342;-1.290;2022-11-15T00:22:22;6;5;
28026;PMS5003;15344;52.342;-1.290;2022-11-15T00:24:47;5;3;
28026;PMS5003;15344;52.342;-1.290;2022-11-15T00:27:12;4;3;
28026;PMS5003;15344;52.342;-1.290;2022-11-15T00:29:38;5;4;
28026;PMS5003;15344;52.342;-1.290;2022-11-15T00:32:03;5;5;
28026;PMS5003;15344;52.342;-1.290;2022-11-15T00:34:29;4;3;
28026;PMS5003;15344;52.342;-1.290;2022-11-15T00:36:54;4;3;
28026;PMS5003;15344;52.342;-1.290;2022-11-15T00:39:20;5;3;
28026;PMS5003;15344;52.342;-1.290;2022-11-15T00:41:45;5;2;
28026;PMS5003;15344;52.342;-1.290;2022-11-15T00:44:10;3;2;
28026;PMS5003;15344;52.342;-1.290;2022-11-15T00:46:36;2;2;
28026;PMS5003;15344;52.342;-1.290;2022-11-15T00:49:01;4;4;
28026;PMS5003;15344;52.342;-1.290;2022-11-15T00:51:26;2;1;
28026;PMS5003;15344;52.342;-1.290;2022-11-15T00:53:52;4;2;
28026;PMS5003;15344;52.342;-1.290;2022-11-15T00:56:17;4;3;
28026;PMS5003;15344;52.342;-1.290;2022-11-15T00:58:42;2;2;
28026;PMS5003;15344;52.342;-1.290;2022-11-15T01:01:09;2;0;
28026;PMS5003;15344;52.342;-1.290;2022-11-15T01:03:33;1;1;
28026;PMS5003;15344;52.342;-1.290;2022-11-15T01:05:58;1;1;
28026;PMS5003;15344;52.342;-1.290;2022-11-15T01:08:24;3;1;
28026;PMS5003;15344;52.342;-1.290;2022-11-15T01:10:49;5;3;
28026;PMS5003;15344;52.342;-1.290;2022-11-15T01:13:14;9;3;
28026;PMS5003;15344;52.342;-1.290;2022-11-15T01:15:40;6;2;
28026;PMS5003;15344;52.342;-1.290;2022-11-15T01:18:05;3;1;
28026;PMS5003;15344;52.342;-1.290;2022-11-15T01:20:30;4;3;
28026;PMS5003;15344;52.342;-1.290;2022-11-15T01:22:56;2;2;
28026;PMS5003;15344;52.342;-1.290;2022-11-15T01:25:21;2;2;
28026;PMS5003;15344;52.342;-1.290;2022-11-15T01:27:46;3;3;
28026;PMS5003;15344;52.342;-1.290;2022-11-15T01:30:12;5;1;
28026;PMS5003;15344;52.342;-1.290;2022-11-15T01:32:37;0;0;
28026;PMS5003;15344;52.342;-1.290;2022-11-15T01:35:03;2;2;
28026;PMS5003;15344;52.342;-1.290;2022-11-15T01:37:28;2;1;
28026;PMS5003;15344;52.342;-1.290;2022-11-15T01:39:53;1;1;
28026;PMS5003;15344;52.342;-1.290;2022-11-15T01:42:18;2;1;
28026;PMS5003;15344;52.342;-1.290;2022-11-15T01:44:45;4;1;
28026;PMS5003;15344;52.342;-1.290;2022-11-15T01:47:11;3;2;
28026;PMS5003;15344;52.342;-1.290;2022-11-15T01:49:35;2;2;
28026;PMS5003;15344;52.342;-1.290;2022-11-15T01:52:01;2;1;
28026;PMS5003;15344;52.342;-1.290;2022-11-15T01:54:25;3;2;
28026;PMS5003;15344;52.342;-1.290;2022-11-15T01:56:51;1;1;
28026;PMS5003;15344;52.342;-1.290;2022-11-15T01:59:16;0;0;
28026;PMS5003;15344;52.342;-1.290;2022-11-15T02:01:41;5;2;
28026;PMS5003;15344;52.342;-1.290;2022-11-15T02:04:09;4;2;
28026;PMS5003;15344;52.342;-1.290;2022-11-15T02:06:32;4;1;
28026;PMS5003;15344;52.342;-1.290;2022-11-15T02:08:58;2;2;
28026;PMS5003;15344;52.342;-1.290;2022-11-15T02:11:23;4;2;
28026;PMS5003;15344;52.342;-1.290;2022-11-15T02:13:49;2;1;
28026;PMS5003;15344;52.342;-1.290;2022-11-15T02:16:15;4;1;
28026;PMS5003;15344;52.342;-1.290;2022-11-15T02:18:40;0;0;
28026;PMS5003;15344;52.342;-1.290;2022-11-15T02:21:07;1;1;
28026;PMS5003;15344;52.342;-1.290;2022-11-15T02:25:59;2;0;
28026;PMS5003;15344;52.342;-1.290;2022-11-15T02:28:27;1;1;
28026;PMS5003;15344;52.342;-1.290;2022-11-15T02:30:47;1;1;
28026;PMS5003;15344;52.342;-1.290;2022-11-15T02:33:14;5;1;
28026;PMS5003;15344;52.342;-1.290;2022-11-15T02:35:38;0;0;
28026;PMS5003;15344;52.342;-1.290;2022-11-15T02:38:05;3;3;
28026;PMS5003;15344;52.342;-1.290;2022-11-15T02:40:32;5;0;
28026;PMS5003;15344;52.342;-1.290;2022-11-15T02:42:54;4;3;
28026;PMS5003;15344;52.342;-1.290;2022-11-15T02:45:20;3;2;
28026;PMS5003;15344;52.342;-1.290;2022-11-15T02:47:45;4;3;
28026;PMS5003;15344;52.342;-1.290;2022-11-15T02:50:11;1;1;
28026;PMS5003;15344;52.342;-1.290;2022-11-15T02:52:34;2;2;
28026;PMS5003;15344;52.342;-1.290;2022-11-15T02:55:00;1;1;
28026;PMS5003;15344;52.342;-1.290;2022-11-15T02:57:28;4;1;
28026;PMS5003;15344;52.342;-1.290;2022-11-15T02:59:55;1;1;
28026;PMS5003;15344;52.342;-1.290;2022-11-15T03:02:18;1;1;
28026;PMS5003;15344;52.342;-1.290;2022-11-15T03:04:43;5;2;
28026;PMS5003;15344;52.342;-1.290;2022-11-15T03:07:07;5;2;
28026;PMS5003;15344;52.342;-1.290;2022-11-15T03:09:33;3;2;
28026;PMS5003;15344;52.342;-1.290;2022-11-15T03:11:59;3;2;
28026;PMS5003;15344;52.342;-1.290;2022-11-15T03:14:24;3;2;
28026;PMS5003;15344;52.342;-1.290;2022-11-15T03:16:49;4;1;
28026;PMS5003;15344;52.342;-1.290;2022-11-15T03:19:17;4;4;
28026;PMS5003;15344;52.342;-1.290;2022-11-15T03:21:39;4;2;
28026;PMS5003;15344;52.342;-1.290;2022-11-15T03:24:05;1;1;
28026;PMS5003;15344;52.342;-1.290;2022-11-15T03:26:30;3;1;
28026;PMS5003;15344;52.342;-1.290;2022-11-15T03:28:56;5;1;
28026;PMS5003;15344;52.342;-1.290;2022-11-15T03:31:21;5;2;
28026;PMS5003;15344;52.342;-1.290;2022-11-15T03:33:46;3;2;
28026;PMS5003;15344;52.342;-1.290;2022-11-15T03:36:11;1;1;
28026;PMS5003;15344;52.342;-1.290;2022-11-15T03:38:37;2;1;
28026;PMS5003;15344;52.342;-1.290;2022-11-15T03:41:04;7;3;
28026;PMS5003;15344;52.342;-1.290;2022-11-15T03:43:30;2;1;
28026;PMS5003;15344;52.342;-1.290;2022-11-15T03:45:53;4;1;
28026;PMS5003;15344;52.342;-1.290;2022-11-15T03:48:18;0;0;
28026;PMS5003;15344;52.342;-1.290;2022-11-15T03:50:44;5;4;
28026;PMS5003;15344;52.342;-1.290;2022-11-15T03:53:09;2;1;
28026;PMS5003;15344;52.342;-1.290;2022-11-15T03:55:34;2;0;
28026;PMS5003;15344;52.342;-1.290;2022-11-15T03:58:00;1;1;
28026;PMS5003;15344;52.342;-1.290;2022-11-15T04:00:25;1;1;
28026;PMS5003;15344;52.342;-1.290;2022-11-15T04:02:50;3;3;
28026;PMS5003;15344;52.342;-1.290;2022-11-15T04:05:16;1;1;
28026;PMS5003;15344;52.342;-1.290;2022-11-15T04:07:41;3;1;
28026;PMS5003;15344;52.342;-1.290;2022-11-15T04:10:07;3;2;
28026;PMS5003;15344;52.342;-1.290;2022-11-15T04:12:32;5;2;
28026;PMS5003;15344;52.342;-1.290;2022-11-15T04:14:57;2;1;
28026;PMS5003;15344;52.342;-1.290;2022-11-15T04:17:22;4;3;
28026;PMS5003;15344;52.342;-1.290;2022-11-15T04:19:47;5;2;
28026;PMS5003;15344;52.342;-1.290;2022-11-15T04:22:13;4;2;
28026;PMS5003;15344;52.342;-1.290;2022-11-15T04:24:38;4;2;
28026;PMS5003;15344;52.342;-1.290;2022-11-15T04:27:03;3;1;
28026;PMS5003;15344;52.342;-1.290;2022-11-15T04:29:29;2;2;
28026;PMS5003;15344;52.342;-1.290;2022-11-15T04:31:54;7;2;
28026;PMS5003;15344;52.342;-1.290;2022-11-15T04:34:20;5;3;
28026;PMS5003;15344;52.342;-1.290;2022-11-15T04:36:45;1;1;
28026;PMS5003;15344;52.342;-1.290;2022-11-15T04:39:11;3;2;
28026;PMS5003;15344;52.342;-1.290;2022-11-15T04:41:36;7;3;
28026;PMS5003;15344;52.342;-1.290;2022-11-15T04:44:01;5;2;
28026;PMS5003;15344;52.342;-1.290;2022-11-15T04:46:27;5;2;
28026;PMS5003;15344;52.342;-1.290;2022-11-15T04:48:52;7;3;
28026;PMS5003;15344;52.342;-1.290;2022-11-15T04:51:17;3;2;
28026;PMS5003;15344;52.342;-1.290;2022-11-15T04:53:42;2;1;
28026;PMS5003;15344;52.342;-1.290;2022-11-15T04:56:08;3;1;
28026;PMS5003;15344;52.342;-1.290;2022-11-15T04:58:34;4;2;
28026;PMS5003;15344;52.342;-1.290;2022-11-15T05:00:58;5;3;
28026;PMS5003;15344;52.342;-1.290;2022-11-15T05:03:24;1;1;
28026;PMS5003;15344;52.342;-1.290;2022-11-15T05:05:49;5;2;
28026;PMS5003;15344;52.342;-1.290;2022-11-15T05:08:14;3;1;
28026;PMS5003;15344;52.342;-1.290;2022-11-15T05:10:40;5;4;
28026;PMS5003;15344;52.342;-1.290;2022-11-15T05:13:05;4;2;
28026;PMS5003;15344;52.342;-1.290;2022-11-15T05:15:30;4;4;
28026;PMS5003;15344;52.342;-1.290;2022-11-15T05:17:57;5;2;
28026;PMS5003;15344;52.342;-1.290;2022-11-15T05:20:21;3;3;
28026;PMS5003;15344;52.342;-1.290;2022-11-15T05:22:46;3;2;
28026;PMS5003;15344;52.342;-1.290;2022-11-15T05:25:11;4;3;
28026;PMS5003;15344;52.342;-1.290;2022-11-15T05:27:37;4;3;
28026;PMS5003;15344;52.342;-1.290;2022-11-15T05:30:02;6;2;
28026;PMS5003;15344;52.342;-1.290;2022-11-15T05:32:28;2;2;
28026;PMS5003;15344;52.342;-1.290;2022-11-15T05:34:52;6;2;
28026;PMS5003;15344;52.342;-1.290;2022-11-15T05:37:18;5;2;
28026;PMS5003;15344;52.342;-1.290;2022-11-15T05:39:43;4;3;
28026;PMS5003;15344;52.342;-1.290;2022-11-15T05:42:09;1;1;
28026;PMS5003;15344;52.342;-1.290;2022-11-15T05:44:35;4;3;
28026;PMS5003;15344;52.342;-1.290;2022-11-15T05:46:59;5;2;
28026;PMS5003;15344;52.342;-1.290;2022-11-15T05:49:26;5;2;
28026;PMS5003;15344;52.342;-1.290;2022-11-15T05:51:50;6;2;
28026;PMS5003;15344;52.342;-1.290;2022-11-15T05:54:15;2;2;
28026;PMS5003;15344;52.342;-1.290;2022-11-15T05:56:41;5;2;
28026;PMS5003;15344;52.342;-1.290;2022-11-15T05:59:06;5;3;
28026;PMS5003;15344;52.342;-1.290;2022-11-15T06:01:31;2;2;
28026;PMS5003;15344;52.342;-1.290;2022-11-15T06:03:57;5;2;
28026;PMS5003;15344;52.342;-1.290;2022-11-15T06:06:22;3;2;
28026;PMS5003;15344;52.342;-1.290;2022-11-15T06:08:47;2;2;
28026;PMS5003;15344;52.342;-1.290;2022-11-15T06:11:13;4;2;
28026;PMS5003;15344;52.342;-1.290;2022-11-15T06:13:38;1;1;
28026;PMS5003;15344;52.342;-1.290;2022-11-15T06:16:04;2;2;
28026;PMS5003;15344;52.342;-1.290;2022-11-15T06:18:31;1;1;
28026;PMS5003;15344;52.342;-1.290;2022-11-15T06:20:54;4;1;
28026;PMS5003;15344;52.342;-1.290;2022-11-15T06:23:19;0;0;
28026;PMS5003;15344;52.342;-1.290;2022-11-15T06:25:45;2;2;
28026;PMS5003;15344;52.342;-1.290;2022-11-15T06:28:10;3;2;
28026;PMS5003;15344;52.342;-1.290;2022-11-15T06:30:35;3;3;
28026;PMS5003;15344;52.342;-1.290;2022-11-15T06:33:02;8;3;
28026;PMS5003;15344;52.342;-1.290;2022-11-15T06:35:26;1;1;
28026;PMS5003;15344;52.342;-1.290;2022-11-15T06:37:51;3;1;
28026;PMS5003;15344;52.342;-1.290;2022-11-15T06:40:17;4;2;
28026;PMS5003;15344;52.342;-1.290;2022-11-15T06:42:42;3;2;
28026;PMS5003;15344;52.342;-1.290;2022-11-15T06:45:08;1;0;
28026;PMS5003;15344;52.342;-1.290;2022-11-15T06:47:33;2;2;
28026;PMS5003;15344;52.342;-1.290;2022-11-15T06:49:58;3;1;
28026;PMS5003;15344;52.342;-1.290;2022-11-15T06:52:23;1;1;
28026;PMS5003;15344;52.342;-1.290;2022-11-15T06:54:49;2;2;
28026;PMS5003;15344;52.342;-1.290;2022-11-15T06:57:14;1;1;
28026;PMS5003;15344;52.342;-1.290;2022-11-15T06:59:40;1;0;
28026;PMS5003;15344;52.342;-1.290;2022-11-15T07:02:05;3;1;
28026;PMS5003;15344;52.342;-1.290;2022-11-15T07:04:30;1;1;
28026;PMS5003;15344;52.342;-1.290;2022-11-15T07:06:55;4;2;
28026;PMS5003;15344;52.342;-1.290;2022-11-15T07:09:21;2;1;
28026;PMS5003;15344;52.342;-1.290;2022-11-15T07:11:46;3;2;
28026;PMS5003;15344;52.342;-1.290;2022-11-15T07:14:11;1;1;
28026;PMS5003;15344;52.342;-1.290;2022-11-15T07:16:37;3;2;
28026;PMS5003;15344;52.342;-1.290;2022-11-15T07:19:02;3;1;
28026;PMS5003;15344;52.342;-1.290;2022-11-15T07:21:27;0;0;
28026;PMS5003;15344;52.342;-1.290;2022-11-15T07:23:53;4;2;
28026;PMS5003;15344;52.342;-1.290;2022-11-15T07:26:18;1;1;
28026;PMS5003;15344;52.342;-1.290;2022-11-15T07:28:43;3;2;
28026;PMS5003;15344;52.342;-1.290;2022-11-15T07:31:09;4;2;
28026;PMS5003;15344;52.342;-1.290;2022-11-15T07:33:35;1;1;
28026;PMS5003;15344;52.342;-1.290;2022-11-15T07:35:59;5;0;
28026;PMS5003;15344;52.342;-1.290;2022-11-15T07:38:25;2;2;
28026;PMS5003;15344;52.342;-1.290;2022-11-15T07:40:55;2;2;
28026;PMS5003;15344;52.342;-1.290;2022-11-15T07:43:15;3;1;
28026;PMS5003;15344;52.342;-1.290;2022-11-15T07:45:41;2;1;
28026;PMS5003;15344;52.342;-1.290;2022-11-15T07:48:06;0;0;
28026;PMS5003;15344;52.342;-1.290;2022-11-15T07:50:31;1;1;
28026;PMS5003;15344;52.342;-1.290;2022-11-15T07:52:57;3;0;
28026;PMS5003;15344;52.342;-1.290;2022-11-15T07:55:22;1;1;
28026;PMS5003;15344;52.342;-1.290;2022-11-15T07:57:47;0;0;
28026;PMS5003;15344;52.342;-1.290;2022-11-15T08:00:13;3;0;
28026;PMS5003;15344;52.342;-1.290;2022-11-15T08:02:38;1;1;
28026;PMS5003;15344;52.342;-1.290;2022-11-15T08:05:03;4;4;
28026;PMS5003;15344;52.342;-1.290;2022-11-15T08:07:29;1;1;
28026;PMS5003;15344;52.342;-1.290;2022-11-15T08:09:54;1;1;
28026;PMS5003;15344;52.342;-1.290;2022-11-15T08:12:19;3;1;
28026;PMS5003;15344;52.342;-1.290;2022-11-15T08:14:44;0;0;
28026;PMS5003;15344;52.342;-1.290;2022-11-15T08:17:10;0;0;
28026;PMS5003;15344;52.342;-1.290;2022-11-15T08:19:35;0;0;
28026;PMS5003;15344;52.342;-1.290;2022-11-15T08:22:00;0;0;
28026;PMS5003;15344;52.342;-1.290;2022-11-15T08:24:26;0;0;
28026;PMS5003;15344;52.342;-1.290;2022-11-15T08:26:51;1;1;
28026;PMS5003;15344;52.342;-1.290;2022-11-15T08:29:16;0;0;
28026;PMS5003;15344;52.342;-1.290;2022-11-15T08:31:42;2;1;
28026;PMS5003;15344;52.342;-1.290;2022-11-15T08:34:07;0;0;
28026;PMS5003;15344;52.342;-1.290;2022-11-15T08:36:32;0;0;
28026;PMS5003;15344;52.342;-1.290;2022-11-15T08:38:58;0;0;
28026;PMS5003;15344;52.342;-1.290;2022-11-15T08:41:24;1;1;
28026;PMS5003;15344;52.342;-1.290;2022-11-15T08:43:49;6;3;
28026;PMS5003;15344;52.342;-1.290;2022-11-15T08:46:13;1;1;
28026;PMS5003;15344;52.342;-1.290;2022-11-15T08:48:39;0;0;
28026;PMS5003;15344;52.342;-1.290;2022-11-15T08:51:05;0;0;
28026;PMS5003;15344;52.342;-1.290;2022-11-15T08:53:29;0;0;
28026;PMS5003;15344;52.342;-1.290;2022-11-15T08:55:55;1;1;
28026;PMS5003;15344;52.342;-1.290;2022-11-15T08:58:20;1;1;
28026;PMS5003;15344;52.342;-1.290;2022-11-15T09:00:45;0;0;
28026;PMS5003;15344;52.342;-1.290;2022-11-15T09:03:11;0;0;
28026;PMS5003;15344;52.342;-1.290;2022-11-15T09:05:36;1;1;
28026;PMS5003;15344;52.342;-1.290;2022-11-15T09:08:01;2;0;
28026;PMS5003;15344;52.342;-1.290;2022-11-15T09:10:27;0;0;
28026;PMS5003;15344;52.342;-1.290;2022-11-15T09:12:52;1;0;
28026;PMS5003;15344;52.342;-1.290;2022-11-15T09:15:18;2;0;
28026;PMS5003;15344;52.342;-1.290;2022-11-15T09:17:42;1;1;
28026;PMS5003;15344;52.342;-1.290;2022-11-15T09:20:08;1;1;
28026;PMS5003;15344;52.342;-1.290;2022-11-15T09:22:33;0;0;
28026;PMS5003;15344;52.342;-1.290;2022-11-15T09:24:59;1;0;
28026;PMS5003;15344;52.342;-1.290;2022-11-15T09:27:27;1;1;
28026;PMS5003;15344;52.342;-1.290;2022-11-15T09:29:49;0;0;
28026;PMS5003;15344;52.342;-1.290;2022-11-15T09:32:14;0;0;
28026;PMS5003;15344;52.342;-1.290;2022-11-15T09:34:40;0;0;
28026;PMS5003;15344;52.342;-1.290;2022-11-15T09:37:05;0;0;
28026;PMS5003;15344;52.342;-1.290;2022-11-15T09:39:30;0;0;
28026;PMS5003;15344;52.342;-1.290;2022-11-15T09:41:59;0;0;
28026;PMS5003;15344;52.342;-1.290;2022-11-15T09:44:25;0;0;
28026;PMS5003;15344;52.342;-1.290;2022-11-15T09:46:54;0;0;
28026;PMS5003;15344;52.342;-1.290;2022-11-15T09:49:13;0;0;
28026;PMS5003;15344;52.342;-1.290;2022-11-15T09:51:37;0;0;
28026;PMS5003;15344;52.342;-1.290;2022-11-15T09:54:04;0;0;
28026;PMS5003;15344;52.342;-1.290;2022-11-15T09:56:29;0;0;
28026;PMS5003;15344;52.342;-1.290;2022-11-15T09:58:55;1;0;
28026;PMS5003;15344;52.342;-1.290;2022-11-15T10:01:21;0;0;
28026;PMS5003;15344;52.342;-1.290;2022-11-15T10:03:43;0;0;
28026;PMS5003;15344;52.342;-1.290;2022-11-15T10:06:09;1;0;
28026;PMS5003;15344;52.342;-1.290;2022-11-15T10:08:37;0;0;
28026;PMS5003;15344;52.342;-1.290;2022-11-15T10:11:00;0;0;
28026;PMS5003;15344;52.342;-1.290;2022-11-15T10:13:25;0;0;
28026;PMS5003;15344;52.342;-1.290;2022-11-15T10:15:50;0;0;
28026;PMS5003;15344;52.342;-1.290;2022-11-15T10:18:15;0;0;
28026;PMS5003;15344;52.342;-1.290;2022-11-15T10:20:44;0;0;
28026;PMS5003;15344;52.342;-1.290;2022-11-15T10:23:06;0;0;
28026;PMS5003;15344;52.342;-1.290;2022-11-15T10:25:31;0;0;
28026;PMS5003;15344;52.342;-1.290;2022-11-15T10:27:57;0;0;
28026;PMS5003;15344;52.342;-1.290;2022-11-15T10:30:22;1;0;
28026;PMS5003;15344;52.342;-1.290;2022-11-15T10:32:47;0;0;
28026;PMS5003;15344;52.342;-1.290;2022-11-15T10:37:37;0;0;
28026;PMS5003;15344;52.342;-1.290;2022-11-15T10:40:03;0;0;
28026;PMS5003;15344;52.342;-1.290;2022-11-15T10:42:28;0;0;
28026;PMS5003;15344;52.342;-1.290;2022-11-15T10:44:53;0;0;
28026;PMS5003;15344;52.342;-1.290;2022-11-15T10:47:21;0;0;
28026;PMS5003;15344;52.342;-1.290;2022-11-15T10:49:52;0;0;
28026;PMS5003;15344;52.342;-1.290;2022-11-15T10:52:13;0;0;
28026;PMS5003;15344;52.342;-1.290;2022-11-15T10:54:36;0;0;
28026;PMS5003;15344;52.342;-1.290;2022-11-15T10:57:00;0;0;
28026;PMS5003;15344;52.342;-1.290;2022-11-15T10:59:26;0;0;
28026;PMS5003;15344;52.342;-1.290;2022-11-15T11:01:50;0;0;
28026;PMS5003;15344;52.342;-1.290;2022-11-15T11:04:15;2;0;
28026;PMS5003;15344;52.342;-1.290;2022-11-15T11:09:10;0;0;
28026;PMS5003;15344;52.342;-1.290;2022-11-15T11:13:59;0;0;
28026;PMS5003;15344;52.342;-1.290;2022-11-15T11:16:26;0;0;
28026;PMS5003;15344;52.342;-1.290;2022-11-15T11:18:49;0;0;
28026;PMS5003;15344;52.342;-1.290;2022-11-15T11:21:13;0;0;
28026;PMS5003;15344;52.342;-1.290;2022-11-15T11:23:42;0;0;
28026;PMS5003;15344;52.342;-1.290;2022-11-15T11:26:08;0;0;
28026;PMS5003;15344;52.342;-1.290;2022-11-15T11:28:32;0;0;
28026;PMS5003;15344;52.342;-1.290;2022-11-15T11:30:57;0;0;
28026;PMS5003;15344;52.342;-1.290;2022-11-15T11:33:19;0;0;
28026;PMS5003;15344;52.342;-1.290;2022-11-15T11:35:46;0;0;
28026;PMS5003;15344;52.342;-1.290;2022-11-15T11:38:17;0;0;
28026;PMS5003;15344;52.342;-1.290;2022-11-15T11:40:35;0;0;
28026;PMS5003;15344;52.342;-1.290;2022-11-15T11:43:02;0;0;
28026;PMS5003;15344;52.342;-1.290;2022-11-15T11:45:40;0;0;
28026;PMS5003;15344;52.342;-1.290;2022-11-15T11:47:51;0;0;
28026;PMS5003;15344;52.342;-1.290;2022-11-15T11:50:17;0;0;
28026;PMS5003;15344;52.342;-1.290;2022-11-15T11:52:41;0;0;
28026;PMS5003;15344;52.342;-1.290;2022-11-15T11:55:11;0;0;
28026;PMS5003;15344;52.342;-1.290;2022-11-15T11:57:33;0;0;
28026;PMS5003;15344;52.342;-1.290;2022-11-15T11:59:58;0;0;
28026;PMS5003;15344;52.342;-1.290;2022-11-15T12:02:24;0;0;
28026;PMS5003;15344;52.342;-1.290;2022-11-15T12:04:48;0;0;
28026;PMS5003;15344;52.342;-1.290;2022-11-15T12:07:13;0;0;
28026;PMS5003;15344;52.342;-1.290;2022-11-15T12:09:38;0;0;
28026;PMS5003;15344;52.342;-1.290;2022-11-15T12:12:06;0;0;
28026;PMS5003;15344;52.342;-1.290;2022-11-15T12:14:31;0;0;
28026;PMS5003;15344;52.342;-1.290;2022-11-15T12:16:53;0;0;
28026;PMS5003;15344;52.342;-1.290;2022-11-15T12:19:19;0;0;
28026;PMS5003;15344;52.342;-1.290;2022-11-15T12:21:45;0;0;
28026;PMS5003;15344;52.342;-1.290;2022-11-15T12:24:12;1;0;
28026;PMS5003;15344;52.342;-1.290;2022-11-15T12:26:35;0;0;
28026;PMS5003;15344;52.342;-1.290;2022-11-15T12:29:00;0;0;
28026;PMS5003;15344;52.342;-1.290;2022-11-15T12:31:26;0;0;
28026;PMS5003;15344;52.342;-1.290;2022-11-15T12:33:50;0;0;
28026;PMS5003;15344;52.342;-1.290;2022-11-15T12:41:12;0;0;
28026;PMS5003;15344;52.342;-1.290;2022-11-15T12:43:36;0;0;
28026;PMS5003;15344;52.342;-1.290;2022-11-15T12:45:57;0;0;
28026;PMS5003;15344;52.342;-1.290;2022-11-15T12:55:37;0;0;
28026;PMS5003;15344;52.342;-1.290;2022-11-15T13:05:49;0;0;
28026;PMS5003;15344;52.342;-1.290;2022-11-15T13:14:59;2;2;
28026;PMS5003;15344;52.342;-1.290;2022-11-15T13:17:28;1;1;
28026;PMS5003;15344;52.342;-1.290;2022-11-15T13:19:53;3;2;
28026;PMS5003;15344;52.342;-1.290;2022-11-15T13:22:15;0;0;
28026;PMS5003;15344;52.342;-1.290;2022-11-15T13:24:40;0;0;
28026;PMS5003;15344;52.342;-1.290;2022-11-15T13:27:09;0;0;
28026;PMS5003;15344;52.342;-1.290;2022-11-15T13:29:30;0;0;
28026;PMS5003;15344;52.342;-1.290;2022-11-15T13:31:56;0;0;
28026;PMS5003;15344;52.342;-1.290;2022-11-15T13:34:24;0;0;
28026;PMS5003;15344;52.342;-1.290;2022-11-15T13:36:46;0;0;
28026;PMS5003;15344;52.342;-1.290;2022-11-15T13:39:13;0;0;
28026;PMS5003;15344;52.342;-1.290;2022-11-15T13:41:37;0;0;
28026;PMS5003;15344;52.342;-1.290;2022-11-15T13:44:02;0;0;
28026;PMS5003;15344;52.342;-1.290;2022-11-15T13:46:27;0;0;
28026;PMS5003;15344;52.342;-1.290;2022-11-15T13:48:53;0;0;
28026;PMS5003;15344;52.342;-1.290;2022-11-15T13:51:18;0;0;
28026;PMS5003;15344;52.342;-1.290;2022-11-15T13:53:43;0;0;
28026;PMS5003;15344;52.342;-1.290;2022-11-15T13:56:08;0;0;
28026;PMS5003;15344;52.342;-1.290;2022-11-15T13:58:33;0;0;
28026;PMS5003;15344;52.342;-1.290;2022-11-15T14:00:59;0;0;
28026;PMS5003;15344;52.342;-1.290;2022-11-15T14:03:24;0;0;
28026;PMS5003;15344;52.342;-1.290;2022-11-15T14:10:39;0;0;
28026;PMS5003;15344;52.342;-1.290;2022-11-15T14:13:09;0;0;
28026;PMS5003;15344;52.342;-1.290;2022-11-15T14:15:30;0;0;
28026;PMS5003;15344;52.342;-1.290;2022-11-15T14:17:55;0;0;
28026;PMS5003;15344;52.342;-1.290;2022-11-15T14:25:16;0;0;
28026;PMS5003;15344;52.342;-1.290;2022-11-15T14:27:37;1;1;
28026;PMS5003;15344;52.342;-1.290;2022-11-15T14:30:02;2;2;
28026;PMS5003;15344;52.342;-1.290;2022-11-15T14:32:28;1;1;
28026;PMS5003;15344;52.342;-1.290;2022-11-15T14:34:53;1;1;
28026;PMS5003;15344;52.342;-1.290;2022-11-15T14:37:19;4;3;
28026;PMS5003;15344;52.342;-1.290;2022-11-15T14:39:43;2;2;
28026;PMS5003;15344;52.342;-1.290;2022-11-15T14:42:09;2;1;
28026;PMS5003;15344;52.342;-1.290;2022-11-15T14:44:33;3;3;
28026;PMS5003;15344;52.342;-1.290;2022-11-15T14:46:58;2;2;
28026;PMS5003;15344;52.342;-1.290;2022-11-15T14:49:24;2;2;
28026;PMS5003;15344;52.342;-1.290;2022-11-15T14:51:49;1;1;
28026;PMS5003;15344;52.342;-1.290;2022-11-15T14:54:14;5;2;
28026;PMS5003;15344;52.342;-1.290;2022-11-15T14:56:39;1;1;
28026;PMS5003;15344;52.342;-1.290;2022-11-15T14:59:05;2;2;
28026;PMS5003;15344;52.342;-1.290;2022-11-15T15:01:30;1;1;
28026;PMS5003;15344;52.342;-1.290;2022-11-15T15:03:55;2;2;
28026;PMS5003;15344;52.342;-1.290;2022-11-15T15:06:20;3;2;
28026;PMS5003;15344;52.342;-1.290;2022-11-15T15:08:46;1;1;
28026;PMS5003;15344;52.342;-1.290;2022-11-15T15:11:13;3;2;
28026;PMS5003;15344;52.342;-1.290;2022-11-15T15:13:36;0;0;
28026;PMS5003;15344;52.342;-1.290;2022-11-15T15:16:01;1;1;
28026;PMS5003;15344;52.342;-1.290;2022-11-15T15:18:26;0;0;
28026;PMS5003;15344;52.342;-1.290;2022-11-15T15:20:54;1;1;
28026;PMS5003;15344;52.342;-1.290;2022-11-15T15:23:18;0;0;
28026;PMS5003;15344;52.342;-1.290;2022-11-15T15:25:42;0;0;
28026;PMS5003;15344;52.342;-1.290;2022-11-15T15:28:07;2;0;
28026;PMS5003;15344;52.342;-1.290;2022-11-15T15:30:33;0;0;
28026;PMS5003;15344;52.342;-1.290;2022-11-15T15:32:58;4;3;
28026;PMS5003;15344;52.342;-1.290;2022-11-15T15:35:23;1;1;
28026;PMS5003;15344;52.342;-1.290;2022-11-15T15:37:49;2;1;
28026;PMS5003;15344;52.342;-1.290;2022-11-15T15:40:14;2;1;
28026;PMS5003;15344;52.342;-1.290;2022-11-15T15:42:39;0;0;
28026;PMS5003;15344;52.342;-1.290;2022-11-15T15:45:05;2;2;
28026;PMS5003;15344;52.342;-1.290;2022-11-15T15:47:30;2;2;
28026;PMS5003;15344;52.342;-1.290;2022-11-15T15:49:55;2;2;
28026;PMS5003;15344;52.342;-1.290;2022-11-15T15:52:20;3;3;
28026;PMS5003;15344;52.342;-1.290;2022-11-15T15:54:46;3;3;
28026;PMS5003;15344;52.342;-1.290;2022-11-15T15:57:11;2;2;
28026;PMS5003;15344;52.342;-1.290;2022-11-15T15:59:36;3;3;
28026;PMS5003;15344;52.342;-1.290;2022-11-15T16:02:01;5;2;
28026;PMS5003;15344;52.342;-1.290;2022-11-15T16:04:26;3;2;
28026;PMS5003;15344;52.342;-1.290;2022-11-15T16:06:52;2;2;
28026;PMS5003;15344;52.342;-1.290;2022-11-15T16:09:22;4;2;
28026;PMS5003;15344;52.342;-1.290;2022-11-15T16:11:43;3;3;
28026;PMS5003;15344;52.342;-1.290;2022-11-15T16:14:08;6;6;
28026;PMS5003;15344;52.342;-1.290;2022-11-15T16:16:33;9;9;
28026;PMS5003;15344;52.342;-1.290;2022-11-15T16:18:58;11;11;
28026;PMS5003;15344;52.342;-1.290;2022-11-15T16:21:23;8;7;
28026;PMS5003;15344;52.342;-1.290;2022-11-15T16:23:49;7;7;
28026;PMS5003;15344;52.342;-1.290;2022-11-15T16:26:17;8;8;
28026;PMS5003;15344;52.342;-1.290;2022-11-15T16:28:40;7;5;
28026;PMS5003;15344;52.342;-1.290;2022-11-15T16:31:05;5;5;
28026;PMS5003;15344;52.342;-1.290;2022-11-15T16:33:30;6;6;
28026;PMS5003;15344;52.342;-1.290;2022-11-15T16:35:55;4;4;
28026;PMS5003;15344;52.342;-1.290;2022-11-15T16:38:21;5;5;
28026;PMS5003;15344;52.342;-1.290;2022-11-15T16:40:46;6;5;
28026;PMS5003;15344;52.342;-1.290;2022-11-15T16:43:11;6;5;
28026;PMS5003;15344;52.342;-1.290;2022-11-15T16:45:37;6;5;
28026;PMS5003;15344;52.342;-1.290;2022-11-15T16:48:02;3;3;
28026;PMS5003;15344;52.342;-1.290;2022-11-15T16:50:28;4;4;
28026;PMS5003;15344;52.342;-1.290;2022-11-15T16:52:53;2;2;
28026;PMS5003;15344;52.342;-1.290;2022-11-15T16:55:18;4;3;
28026;PMS5003;15344;52.342;-1.290;2022-11-15T16:57:43;3;3;
28026;PMS5003;15344;52.342;-1.290;2022-11-15T17:00:10;3;2;
28026;PMS5003;15344;52.342;-1.290;2022-11-15T17:02:34;5;5;
28026;PMS5003;15344;52.342;-1.290;2022-11-15T17:04:59;5;3;